Terminal Aerodrome Forecast
Issued by NWS Shreveport, LA

Home | Current Version | Previous Version | Text Only | Print | Product List | Glossary On
Versions: 1 2 3 4 5 6 7 8 9 10 11 12 13
000
FTUS44 KSHV 282300
TAFSHV
TAF
KSHV 282320Z 2900/2924 03005KT P6SM FEW045 BKN290
     FM290600 02004KT P6SM SCT250
     FM291400 01007KT P6SM SCT150=

USA.gov is the U.S. government's official web portal to all federal, state and local government web resources and services.